sensor_id;sensor_type;location;lat;lon;timestamp;pressure;altitude;pressure_sealevel;temperature;humidity
51972;BME280;37991;49.662;10.060;2022-08-19T00:01:19;98752.94;;;20.95;78.81
51972;BME280;37991;49.662;10.060;2022-08-19T00:03:45;98753.59;;;20.97;78.89
51972;BME280;37991;49.662;10.060;2022-08-19T00:06:10;98754.78;;;20.94;78.64
51972;BME280;37991;49.662;10.060;2022-08-19T00:08:36;98753.13;;;20.93;78.88
51972;BME280;37991;49.662;10.060;2022-08-19T00:11:01;98748.00;;;20.92;78.93
51972;BME280;37991;49.662;10.060;2022-08-19T00:13:27;98745.69;;;20.88;79.12
51972;BME280;37991;49.662;10.060;2022-08-19T00:15:54;98746.53;;;20.89;79.15
51972;BME280;37991;49.662;10.060;2022-08-19T00:18:19;98746.34;;;20.90;78.81
51972;BME280;37991;49.662;10.060;2022-08-19T00:20:45;98739.56;;;20.88;78.96
51972;BME280;37991;49.662;10.060;2022-08-19T00:23:10;98738.47;;;20.82;79.10
51972;BME280;37991;49.662;10.060;2022-08-19T00:25:35;98737.38;;;20.77;79.37
51972;BME280;37991;49.662;10.060;2022-08-19T00:28:02;98731.44;;;20.75;79.23
51972;BME280;37991;49.662;10.060;2022-08-19T00:30:28;98726.09;;;20.75;79.46
51972;BME280;37991;49.662;10.060;2022-08-19T00:32:53;98728.50;;;20.70;80.16
51972;BME280;37991;49.662;10.060;2022-08-19T00:35:20;98728.25;;;20.64;80.20
51972;BME280;37991;49.662;10.060;2022-08-19T00:37:48;98722.72;;;20.66;79.96
51972;BME280;37991;49.662;10.060;2022-08-19T00:40:14;98716.75;;;20.64;79.92
51972;BME280;37991;49.662;10.060;2022-08-19T00:42:40;98716.75;;;20.64;79.80
51972;BME280;37991;49.662;10.060;2022-08-19T00:45:24;98716.06;;;20.55;80.27
51972;BME280;37991;49.662;10.060;2022-08-19T00:47:50;98718.06;;;20.53;80.32
51972;BME280;37991;49.662;10.060;2022-08-19T00:50:18;98723.94;;;20.49;80.42
51972;BME280;37991;49.662;10.060;2022-08-19T00:52:47;98733.09;;;20.31;81.49
51972;BME280;37991;49.662;10.060;2022-08-19T00:55:22;98737.22;;;20.34;81.31
51972;BME280;37991;49.662;10.060;2022-08-19T00:57:55;98730.81;;;20.28;81.34
51972;BME280;37991;49.662;10.060;2022-08-19T01:00:23;98715.06;;;20.27;81.38
51972;BME280;37991;49.662;10.060;2022-08-19T01:02:49;98714.97;;;20.20;81.96
51972;BME280;37991;49.662;10.060;2022-08-19T01:05:21;98726.59;;;20.19;82.15
51972;BME280;37991;49.662;10.060;2022-08-19T01:07:48;98728.78;;;20.15;82.95
51972;BME280;37991;49.662;10.060;2022-08-19T01:10:18;98729.00;;;20.14;82.53
51972;BME280;37991;49.662;10.060;2022-08-19T01:12:45;98720.28;;;20.05;82.60
51972;BME280;37991;49.662;10.060;2022-08-19T01:15:14;98717.06;;;20.10;82.26
51972;BME280;37991;49.662;10.060;2022-08-19T01:17:40;98713.69;;;20.01;82.70
51972;BME280;37991;49.662;10.060;2022-08-19T01:20:11;98711.38;;;19.98;82.44
51972;BME280;37991;49.662;10.060;2022-08-19T01:22:43;98718.91;;;19.94;82.63
51972;BME280;37991;49.662;10.060;2022-08-19T01:25:09;98726.50;;;19.83;82.90
51972;BME280;37991;49.662;10.060;2022-08-19T01:27:40;98737.13;;;19.83;82.87
51972;BME280;37991;49.662;10.060;2022-08-19T01:30:07;98744.34;;;19.74;83.52
51972;BME280;37991;49.662;10.060;2022-08-19T01:32:32;98751.06;;;19.62;83.80
51972;BME280;37991;49.662;10.060;2022-08-19T01:34:58;98757.22;;;19.62;83.76
51972;BME280;37991;49.662;10.060;2022-08-19T01:37:26;98763.03;;;19.66;83.61
51972;BME280;37991;49.662;10.060;2022-08-19T01:39:51;98771.81;;;19.66;83.82
51972;BME280;37991;49.662;10.060;2022-08-19T01:42:17;98775.16;;;19.60;84.20
51972;BME280;37991;49.662;10.060;2022-08-19T01:44:42;98778.47;;;19.62;84.48
51972;BME280;37991;49.662;10.060;2022-08-19T01:47:08;98774.94;;;19.70;83.83
51972;BME280;37991;49.662;10.060;2022-08-19T01:49:35;98768.59;;;19.71;83.96
51972;BME280;37991;49.662;10.060;2022-08-19T01:52:00;98759.47;;;19.73;84.12
51972;BME280;37991;49.662;10.060;2022-08-19T01:54:26;98760.63;;;19.71;84.16
51972;BME280;37991;49.662;10.060;2022-08-19T01:56:53;98758.19;;;19.61;84.48
51972;BME280;37991;49.662;10.060;2022-08-19T01:59:22;98764.84;;;19.65;84.36
51972;BME280;37991;49.662;10.060;2022-08-19T02:01:48;98770.91;;;19.74;84.06
51972;BME280;37991;49.662;10.060;2022-08-19T02:04:13;98773.84;;;19.79;83.58
51972;BME280;37991;49.662;10.060;2022-08-19T02:06:39;98777.34;;;19.80;83.63
51972;BME280;37991;49.662;10.060;2022-08-19T02:09:06;98774.75;;;19.71;83.81
51972;BME280;37991;49.662;10.060;2022-08-19T02:11:34;98774.56;;;19.73;83.97
51972;BME280;37991;49.662;10.060;2022-08-19T02:14:04;98771.91;;;19.73;83.60
51972;BME280;37991;49.662;10.060;2022-08-19T02:16:31;98778.34;;;19.79;83.58
51972;BME280;37991;49.662;10.060;2022-08-19T02:18:56;98778.72;;;19.76;83.69
51972;BME280;37991;49.662;10.060;2022-08-19T02:21:23;98785.66;;;19.77;83.50
51972;BME280;37991;49.662;10.060;2022-08-19T02:23:49;98789.50;;;19.74;83.84
51972;BME280;37991;49.662;10.060;2022-08-19T02:26:16;98778.06;;;19.73;83.62
51972;BME280;37991;49.662;10.060;2022-08-19T02:28:42;98792.81;;;19.76;83.52
51972;BME280;37991;49.662;10.060;2022-08-19T02:31:10;98782.56;;;19.73;83.67
51972;BME280;37991;49.662;10.060;2022-08-19T02:33:36;98785.88;;;19.75;83.44
51972;BME280;37991;49.662;10.060;2022-08-19T02:36:04;98787.41;;;19.69;83.61
51972;BME280;37991;49.662;10.060;2022-08-19T02:38:29;98782.25;;;19.68;83.42
51972;BME280;37991;49.662;10.060;2022-08-19T02:41:00;98771.00;;;19.66;83.71
51972;BME280;37991;49.662;10.060;2022-08-19T02:43:28;98769.63;;;19.70;83.55
51972;BME280;37991;49.662;10.060;2022-08-19T02:45:54;98762.53;;;19.62;83.97
51972;BME280;37991;49.662;10.060;2022-08-19T02:48:21;98760.22;;;19.59;84.15
51972;BME280;37991;49.662;10.060;2022-08-19T02:50:49;98765.19;;;19.62;83.80
51972;BME280;37991;49.662;10.060;2022-08-19T02:53:18;98776.13;;;19.67;83.63
51972;BME280;37991;49.662;10.060;2022-08-19T02:55:45;98781.63;;;19.66;83.56
51972;BME280;37991;49.662;10.060;2022-08-19T02:58:12;98782.81;;;19.55;83.73
51972;BME280;37991;49.662;10.060;2022-08-19T03:00:43;98780.88;;;19.49;84.18
51972;BME280;37991;49.662;10.060;2022-08-19T03:03:09;98782.09;;;19.46;84.45
51972;BME280;37991;49.662;10.060;2022-08-19T03:05:35;98783.78;;;19.39;84.55
51972;BME280;37991;49.662;10.060;2022-08-19T03:08:01;98773.03;;;19.33;84.85
51972;BME280;37991;49.662;10.060;2022-08-19T03:10:26;98780.38;;;19.31;85.08
51972;BME280;37991;49.662;10.060;2022-08-19T03:12:51;98771.75;;;19.28;85.13
51972;BME280;37991;49.662;10.060;2022-08-19T03:15:17;98779.25;;;19.25;85.46
51972;BME280;37991;49.662;10.060;2022-08-19T03:17:42;98784.00;;;19.29;85.26
51972;BME280;37991;49.662;10.060;2022-08-19T03:20:08;98789.78;;;19.33;85.09
51972;BME280;37991;49.662;10.060;2022-08-19T03:22:33;98804.25;;;19.31;85.18
51972;BME280;37991;49.662;10.060;2022-08-19T03:24:59;98798.59;;;19.34;85.11
51972;BME280;37991;49.662;10.060;2022-08-19T03:27:24;98801.06;;;19.35;85.28
51972;BME280;37991;49.662;10.060;2022-08-19T03:29:50;98803.53;;;19.37;84.79
51972;BME280;37991;49.662;10.060;2022-08-19T03:32:16;98799.91;;;19.38;84.86
51972;BME280;37991;49.662;10.060;2022-08-19T03:34:41;98787.59;;;19.37;84.98
51972;BME280;37991;49.662;10.060;2022-08-19T03:37:09;98787.91;;;19.42;84.57
51972;BME280;37991;49.662;10.060;2022-08-19T03:39:38;98783.84;;;19.31;85.28
51972;BME280;37991;49.662;10.060;2022-08-19T03:42:04;98791.09;;;19.37;84.75
51972;BME280;37991;49.662;10.060;2022-08-19T03:44:30;98783.78;;;19.39;85.28
51972;BME280;37991;49.662;10.060;2022-08-19T03:46:59;98784.59;;;19.40;84.89
51972;BME280;37991;49.662;10.060;2022-08-19T03:49:28;98789.28;;;19.38;85.20
51972;BME280;37991;49.662;10.060;2022-08-19T03:51:55;98781.13;;;19.39;84.94
51972;BME280;37991;49.662;10.060;2022-08-19T03:54:23;98791.28;;;19.36;85.29
51972;BME280;37991;49.662;10.060;2022-08-19T03:56:50;98789.97;;;19.32;85.40
51972;BME280;37991;49.662;10.060;2022-08-19T03:59:23;98791.47;;;19.34;85.46
51972;BME280;37991;49.662;10.060;2022-08-19T04:01:50;98792.44;;;19.33;85.70
51972;BME280;37991;49.662;10.060;2022-08-19T04:04:16;98779.16;;;19.33;85.54
51972;BME280;37991;49.662;10.060;2022-08-19T04:06:42;98784.31;;;19.35;85.60
51972;BME280;37991;49.662;10.060;2022-08-19T04:09:10;98776.47;;;19.41;85.39
51972;BME280;37991;49.662;10.060;2022-08-19T04:11:42;98777.28;;;19.42;85.19
51972;BME280;37991;49.662;10.060;2022-08-19T04:14:16;98783.59;;;19.41;85.38
51972;BME280;37991;49.662;10.060;2022-08-19T04:16:42;98781.81;;;19.33;85.63
51972;BME280;37991;49.662;10.060;2022-08-19T04:19:09;98782.28;;;19.37;85.44
51972;BME280;37991;49.662;10.060;2022-08-19T04:21:35;98772.53;;;19.37;85.46
51972;BME280;37991;49.662;10.060;2022-08-19T04:24:01;98782.84;;;19.32;85.77
51972;BME280;37991;49.662;10.060;2022-08-19T04:26:32;98788.16;;;19.32;85.47
51972;BME280;37991;49.662;10.060;2022-08-19T04:29:00;98789.78;;;19.33;85.57
51972;BME280;37991;49.662;10.060;2022-08-19T04:31:29;98796.66;;;19.27;85.71
51972;BME280;37991;49.662;10.060;2022-08-19T04:33:56;98794.34;;;19.24;86.11
51972;BME280;37991;49.662;10.060;2022-08-19T04:36:28;98791.34;;;19.27;85.84
51972;BME280;37991;49.662;10.060;2022-08-19T04:38:57;98802.31;;;19.24;85.79
51972;BME280;37991;49.662;10.060;2022-08-19T04:41:22;98799.19;;;19.21;86.25
51972;BME280;37991;49.662;10.060;2022-08-19T04:44:07;98809.16;;;19.19;86.24
51972;BME280;37991;49.662;10.060;2022-08-19T04:46:32;98802.81;;;19.20;86.48
51972;BME280;37991;49.662;10.060;2022-08-19T04:48:59;98793.38;;;19.17;86.20
51972;BME280;37991;49.662;10.060;2022-08-19T04:51:25;98788.38;;;19.22;85.88
51972;BME280;37991;49.662;10.060;2022-08-19T04:53:50;98794.16;;;19.26;86.12
51972;BME280;37991;49.662;10.060;2022-08-19T04:56:17;98790.69;;;19.25;86.19
51972;BME280;37991;49.662;10.060;2022-08-19T04:58:45;98790.13;;;19.30;85.94
51972;BME280;37991;49.662;10.060;2022-08-19T05:01:18;98790.63;;;19.34;85.75
51972;BME280;37991;49.662;10.060;2022-08-19T05:03:43;98793.44;;;19.32;85.84
51972;BME280;37991;49.662;10.060;2022-08-19T05:06:11;98811.66;;;19.43;85.46
51972;BME280;37991;49.662;10.060;2022-08-19T05:08:38;98806.25;;;19.51;84.93
51972;BME280;37991;49.662;10.060;2022-08-19T05:11:10;98803.09;;;19.56;84.38
51972;BME280;37991;49.662;10.060;2022-08-19T05:13:36;98804.88;;;19.56;84.33
51972;BME280;37991;49.662;10.060;2022-08-19T05:16:02;98814.34;;;19.58;84.38
51972;BME280;37991;49.662;10.060;2022-08-19T05:18:28;98819.81;;;19.65;84.08
51972;BME280;37991;49.662;10.060;2022-08-19T05:21:15;98812.25;;;19.77;83.76
51972;BME280;37991;49.662;10.060;2022-08-19T05:24:00;98818.09;;;19.72;83.92
51972;BME280;37991;49.662;10.060;2022-08-19T05:26:25;98813.72;;;19.79;83.86
51972;BME280;37991;49.662;10.060;2022-08-19T05:28:52;98813.72;;;19.79;83.89
51972;BME280;37991;49.662;10.060;2022-08-19T05:31:18;98817.97;;;19.88;83.81
51972;BME280;37991;49.662;10.060;2022-08-19T05:33:44;98829.88;;;19.92;83.20
51972;BME280;37991;49.662;10.060;2022-08-19T05:36:10;98834.03;;;19.95;83.77
51972;BME280;37991;49.662;10.060;2022-08-19T05:38:35;98851.91;;;20.01;83.39
51972;BME280;37991;49.662;10.060;2022-08-19T05:41:09;98850.44;;;19.98;83.53
51972;BME280;37991;49.662;10.060;2022-08-19T05:43:35;98852.28;;;19.98;83.59
51972;BME280;37991;49.662;10.060;2022-08-19T05:46:00;98848.59;;;19.99;83.49
51972;BME280;37991;49.662;10.060;2022-08-19T05:48:25;98847.56;;;20.00;83.64
51972;BME280;37991;49.662;10.060;2022-08-19T05:50:51;98851.16;;;19.92;83.87
51972;BME280;37991;49.662;10.060;2022-08-19T05:53:17;98860.03;;;20.00;83.55
51972;BME280;37991;49.662;10.060;2022-08-19T05:55:43;98860.88;;;20.00;83.52
51972;BME280;37991;49.662;10.060;2022-08-19T05:58:08;98865.81;;;20.03;83.32
51972;BME280;37991;49.662;10.060;2022-08-19T06:00:35;98870.16;;;20.04;83.46
51972;BME280;37991;49.662;10.060;2022-08-19T06:03:01;98868.50;;;20.03;83.28
51972;BME280;37991;49.662;10.060;2022-08-19T06:05:31;98873.19;;;20.01;83.38
51972;BME280;37991;49.662;10.060;2022-08-19T06:07:57;98864.84;;;20.04;83.36
51972;BME280;37991;49.662;10.060;2022-08-19T06:10:24;98859.44;;;20.12;83.07
51972;BME280;37991;49.662;10.060;2022-08-19T06:12:49;98861.84;;;20.22;82.61
51972;BME280;37991;49.662;10.060;2022-08-19T06:15:15;98864.94;;;20.11;82.88
51972;BME280;37991;49.662;10.060;2022-08-19T06:17:41;98867.19;;;19.99;83.75
51972;BME280;37991;49.662;10.060;2022-08-19T06:20:12;98877.47;;;20.02;83.43
51972;BME280;37991;49.662;10.060;2022-08-19T06:22:41;98876.00;;;20.00;83.94
51972;BME280;37991;49.662;10.060;2022-08-19T06:25:07;98880.69;;;19.97;83.82
51972;BME280;37991;49.662;10.060;2022-08-19T06:27:34;98885.81;;;19.99;83.84
51972;BME280;37991;49.662;10.060;2022-08-19T06:30:01;98894.97;;;19.96;83.90
51972;BME280;37991;49.662;10.060;2022-08-19T06:32:26;98891.94;;;20.00;84.00
51972;BME280;37991;49.662;10.060;2022-08-19T06:34:51;98901.41;;;20.02;83.85
51972;BME280;37991;49.662;10.060;2022-08-19T06:37:17;98891.94;;;20.00;84.25
51972;BME280;37991;49.662;10.060;2022-08-19T06:39:43;98897.72;;;20.03;84.02
51972;BME280;37991;49.662;10.060;2022-08-19T06:42:10;98901.94;;;19.97;84.60
51972;BME280;37991;49.662;10.060;2022-08-19T06:44:40;98894.59;;;20.00;84.53
51972;BME280;37991;49.662;10.060;2022-08-19T06:47:08;98894.34;;;20.09;83.73
51972;BME280;37991;49.662;10.060;2022-08-19T06:49:34;98886.38;;;20.09;83.67
51972;BME280;37991;49.662;10.060;2022-08-19T06:52:00;98887.09;;;20.03;84.07
51972;BME280;37991;49.662;10.060;2022-08-19T06:54:26;98895.25;;;20.02;83.96
51972;BME280;37991;49.662;10.060;2022-08-19T06:56:53;98892.53;;;20.10;83.57
51972;BME280;37991;49.662;10.060;2022-08-19T06:59:21;98888.31;;;20.15;83.39
51972;BME280;37991;49.662;10.060;2022-08-19T07:01:51;98888.97;;;20.17;83.56
51972;BME280;37991;49.662;10.060;2022-08-19T07:04:26;98891.19;;;20.14;83.88
51972;BME280;37991;49.662;10.060;2022-08-19T07:07:07;98884.28;;;20.19;83.50
51972;BME280;37991;49.662;10.060;2022-08-19T07:09:35;98885.97;;;20.20;83.21
51972;BME280;37991;49.662;10.060;2022-08-19T07:12:03;98893.13;;;20.20;83.41
51972;BME280;37991;49.662;10.060;2022-08-19T07:14:29;98887.81;;;20.20;83.40
51972;BME280;37991;49.662;10.060;2022-08-19T07:16:56;98888.88;;;20.26;83.28
51972;BME280;37991;49.662;10.060;2022-08-19T07:19:24;98882.75;;;20.25;82.94
51972;BME280;37991;49.662;10.060;2022-08-19T07:21:51;98897.53;;;20.28;82.94
51972;BME280;37991;49.662;10.060;2022-08-19T07:24:21;98903.50;;;20.30;82.88
51972;BME280;37991;49.662;10.060;2022-08-19T07:26:51;98908.56;;;20.39;82.54
51972;BME280;37991;49.662;10.060;2022-08-19T07:29:17;98909.09;;;20.35;82.72
51972;BME280;37991;49.662;10.060;2022-08-19T07:31:43;98909.28;;;20.33;82.73
51972;BME280;37991;49.662;10.060;2022-08-19T07:34:12;98911.13;;;20.33;83.00
51972;BME280;37991;49.662;10.060;2022-08-19T07:36:40;98910.56;;;20.37;82.88
51972;BME280;37991;49.662;10.060;2022-08-19T07:39:20;98906.44;;;20.35;83.04
51972;BME280;37991;49.662;10.060;2022-08-19T07:41:46;98903.34;;;20.46;82.67
51972;BME280;37991;49.662;10.060;2022-08-19T07:44:13;98910.63;;;20.52;82.24
51972;BME280;37991;49.662;10.060;2022-08-19T07:46:42;98910.31;;;20.47;82.61
51972;BME280;37991;49.662;10.060;2022-08-19T07:49:10;98916.19;;;20.42;83.00
51972;BME280;37991;49.662;10.060;2022-08-19T07:51:39;98914.81;;;20.47;82.83
51972;BME280;37991;49.662;10.060;2022-08-19T07:54:04;98915.69;;;20.62;82.15
51972;BME280;37991;49.662;10.060;2022-08-19T07:56:30;98914.03;;;20.61;81.96
51972;BME280;37991;49.662;10.060;2022-08-19T07:58:55;98905.75;;;20.71;81.92
51972;BME280;37991;49.662;10.060;2022-08-19T08:01:26;98901.19;;;20.64;82.54
51972;BME280;37991;49.662;10.060;2022-08-19T08:03:54;98900.81;;;20.67;82.09
51972;BME280;37991;49.662;10.060;2022-08-19T08:06:38;98909.28;;;20.71;82.08
51972;BME280;37991;49.662;10.060;2022-08-19T08:09:26;98917.06;;;20.73;81.92
51972;BME280;37991;49.662;10.060;2022-08-19T08:11:56;98915.69;;;20.77;81.98
51972;BME280;37991;49.662;10.060;2022-08-19T08:14:37;98925.97;;;20.95;81.31
51972;BME280;37991;49.662;10.060;2022-08-19T08:17:05;98935.81;;;20.94;81.20
51972;BME280;37991;49.662;10.060;2022-08-19T08:19:31;98930.03;;;20.90;81.10
51972;BME280;37991;49.662;10.060;2022-08-19T08:21:58;98936.91;;;21.00;80.76
51972;BME280;37991;49.662;10.060;2022-08-19T08:24:26;98941.59;;;20.98;81.15
51972;BME280;37991;49.662;10.060;2022-08-19T08:26:52;98932.41;;;21.00;81.05
51972;BME280;37991;49.662;10.060;2022-08-19T08:29:18;98938.09;;;20.97;81.05
51972;BME280;37991;49.662;10.060;2022-08-19T08:31:45;98937.16;;;21.20;79.71
51972;BME280;37991;49.662;10.060;2022-08-19T08:34:12;98930.94;;;21.12;79.75
51972;BME280;37991;49.662;10.060;2022-08-19T08:36:39;98934.13;;;21.23;79.55
51972;BME280;37991;49.662;10.060;2022-08-19T08:39:13;98935.91;;;21.16;79.88
51972;BME280;37991;49.662;10.060;2022-08-19T08:41:53;98938.06;;;21.12;79.74
51972;BME280;37991;49.662;10.060;2022-08-19T08:47:04;98945.31;;;21.18;79.54
51972;BME280;37991;49.662;10.060;2022-08-19T08:49:48;98940.13;;;21.10;79.97
51972;BME280;37991;49.662;10.060;2022-08-19T08:52:25;98932.56;;;21.28;79.22
51972;BME280;37991;49.662;10.060;2022-08-19T08:54:54;98938.44;;;21.24;79.47
51972;BME280;37991;49.662;10.060;2022-08-19T08:58:01;98941.38;;;21.29;79.10
51972;BME280;37991;49.662;10.060;2022-08-19T09:00:46;98947.63;;;21.21;79.37
51972;BME280;37991;49.662;10.060;2022-08-19T09:03:27;98943.59;;;21.25;79.25
51972;BME280;37991;49.662;10.060;2022-08-19T09:06:14;98942.38;;;21.28;79.35
51972;BME280;37991;49.662;10.060;2022-08-19T09:09:04;98940.19;;;21.31;79.18
51972;BME280;37991;49.662;10.060;2022-08-19T09:16:22;98944.31;;;21.34;78.79
51972;BME280;37991;49.662;10.060;2022-08-19T09:18:52;98944.22;;;21.27;79.09
51972;BME280;37991;49.662;10.060;2022-08-19T09:21:22;98941.09;;;21.24;79.17
51972;BME280;37991;49.662;10.060;2022-08-19T09:23:48;98932.81;;;21.33;78.93
51972;BME280;37991;49.662;10.060;2022-08-19T09:26:18;98932.38;;;21.30;79.14
51972;BME280;37991;49.662;10.060;2022-08-19T09:28:47;98930.53;;;21.30;79.29
51972;BME280;37991;49.662;10.060;2022-08-19T09:31:17;98922.84;;;21.35;79.23
51972;BME280;37991;49.662;10.060;2022-08-19T09:33:44;98923.66;;;21.36;79.21
51972;BME280;37991;49.662;10.060;2022-08-19T09:36:13;98916.03;;;21.48;78.96
51972;BME280;37991;49.662;10.060;2022-08-19T09:38:40;98925.66;;;21.49;78.94
51972;BME280;37991;49.662;10.060;2022-08-19T09:41:12;98919.97;;;21.52;79.08
51972;BME280;37991;49.662;10.060;2022-08-19T09:43:40;98920.03;;;21.58;78.84
51972;BME280;37991;49.662;10.060;2022-08-19T09:46:08;98919.66;;;21.62;78.84
51972;BME280;37991;49.662;10.060;2022-08-19T09:48:38;98916.56;;;21.79;78.38
51972;BME280;37991;49.662;10.060;2022-08-19T09:51:17;98923.56;;;21.80;78.47
51972;BME280;37991;49.662;10.060;2022-08-19T09:53:44;98921.53;;;21.82;78.28
51972;BME280;37991;49.662;10.060;2022-08-19T09:56:10;98921.38;;;21.91;78.24
51972;BME280;37991;49.662;10.060;2022-08-19T09:58:36;98931.09;;;21.98;77.51
51972;BME280;37991;49.662;10.060;2022-08-19T10:01:04;98932.75;;;21.99;77.17
51972;BME280;37991;49.662;10.060;2022-08-19T10:03:31;98931.28;;;21.97;77.41
51972;BME280;37991;49.662;10.060;2022-08-19T10:06:00;98929.84;;;21.94;77.78
51972;BME280;37991;49.662;10.060;2022-08-19T10:08:29;98935.81;;;21.96;77.44
51972;BME280;37991;49.662;10.060;2022-08-19T10:10:56;98933.25;;;21.88;78.19
51972;BME280;37991;49.662;10.060;2022-08-19T10:13:24;98935.16;;;21.94;78.05
51972;BME280;37991;49.662;10.060;2022-08-19T10:15:51;98934.16;;;21.95;78.13
51972;BME280;37991;49.662;10.060;2022-08-19T10:18:20;98921.13;;;21.86;78.53
51972;BME280;37991;49.662;10.060;2022-08-19T10:20:47;98930.59;;;21.88;78.79
51972;BME280;37991;49.662;10.060;2022-08-19T10:23:13;98929.88;;;22.01;78.50
51972;BME280;37991;49.662;10.060;2022-08-19T10:25:39;98929.44;;;21.97;78.81
51972;BME280;37991;49.662;10.060;2022-08-19T10:28:04;98926.16;;;21.95;79.06
51972;BME280;37991;49.662;10.060;2022-08-19T10:30:33;98922.66;;;21.95;79.07
51972;BME280;37991;49.662;10.060;2022-08-19T10:32:58;98923.34;;;22.03;78.15
51972;BME280;37991;49.662;10.060;2022-08-19T10:35:24;98921.09;;;22.22;78.70
51972;BME280;37991;49.662;10.060;2022-08-19T10:37:55;98920.88;;;22.23;78.17
51972;BME280;37991;49.662;10.060;2022-08-19T10:40:25;98917.84;;;22.26;77.44
51972;BME280;37991;49.662;10.060;2022-08-19T10:42:50;98923.47;;;22.38;77.69
51972;BME280;37991;49.662;10.060;2022-08-19T10:45:16;98927.19;;;22.37;78.10
51972;BME280;37991;49.662;10.060;2022-08-19T10:47:42;98913.84;;;22.37;78.37
51972;BME280;37991;49.662;10.060;2022-08-19T10:50:07;98926.88;;;22.54;77.87
51972;BME280;37991;49.662;10.060;2022-08-19T10:52:51;98916.25;;;22.60;78.03
51972;BME280;37991;49.662;10.060;2022-08-19T10:55:22;98911.81;;;22.74;77.21
51972;BME280;37991;49.662;10.060;2022-08-19T10:58:14;98921.06;;;22.78;77.89
51972;BME280;37991;49.662;10.060;2022-08-19T11:00:41;98912.63;;;22.74;77.95
51972;BME280;37991;49.662;10.060;2022-08-19T11:03:08;98917.31;;;22.66;74.85
51972;BME280;37991;49.662;10.060;2022-08-19T11:05:33;98917.38;;;22.72;76.25
51972;BME280;37991;49.662;10.060;2022-08-19T11:07:59;98922.84;;;22.64;77.67
51972;BME280;37991;49.662;10.060;2022-08-19T11:10:24;98926.69;;;22.55;78.07
51972;BME280;37991;49.662;10.060;2022-08-19T11:12:50;98924.41;;;22.52;78.85
51972;BME280;37991;49.662;10.060;2022-08-19T11:15:19;98925.38;;;22.44;79.34
51972;BME280;37991;49.662;10.060;2022-08-19T11:17:44;98922.28;;;22.41;79.68
51972;BME280;37991;49.662;10.060;2022-08-19T11:20:12;98914.44;;;22.39;77.75
51972;BME280;37991;49.662;10.060;2022-08-19T11:22:38;98919.31;;;22.29;76.11
51972;BME280;37991;49.662;10.060;2022-08-19T11:25:05;98913.19;;;22.35;77.30
51972;BME280;37991;49.662;10.060;2022-08-19T11:27:30;98910.53;;;22.35;78.01
51972;BME280;37991;49.662;10.060;2022-08-19T11:29:56;98912.16;;;22.36;78.60
51972;BME280;37991;49.662;10.060;2022-08-19T11:32:21;98908.59;;;22.50;78.21
51972;BME280;37991;49.662;10.060;2022-08-19T11:34:46;98909.50;;;22.64;78.23
51972;BME280;37991;49.662;10.060;2022-08-19T11:37:12;98906.75;;;22.86;77.31
51972;BME280;37991;49.662;10.060;2022-08-19T11:39:37;98909.44;;;22.86;76.50
51972;BME280;37991;49.662;10.060;2022-08-19T11:42:05;98909.47;;;22.92;75.75
51972;BME280;37991;49.662;10.060;2022-08-19T11:44:51;98898.47;;;23.09;74.05
51972;BME280;37991;49.662;10.060;2022-08-19T11:47:17;98891.81;;;23.33;72.43
51972;BME280;37991;49.662;10.060;2022-08-19T11:49:42;98897.72;;;23.21;75.44
51972;BME280;37991;49.662;10.060;2022-08-19T11:52:08;98896.06;;;23.20;75.55
51972;BME280;37991;49.662;10.060;2022-08-19T11:54:34;98896.91;;;23.21;74.80
51972;BME280;37991;49.662;10.060;2022-08-19T11:57:02;98900.44;;;23.35;73.16
51972;BME280;37991;49.662;10.060;2022-08-19T11:59:27;98900.13;;;23.10;75.06
51972;BME280;37991;49.662;10.060;2022-08-19T12:01:54;98897.06;;;23.13;74.43
51972;BME280;37991;49.662;10.060;2022-08-19T12:04:21;98900.75;;;23.12;74.04
51972;BME280;37991;49.662;10.060;2022-08-19T12:06:47;98901.56;;;23.06;76.71
51972;BME280;37991;49.662;10.060;2022-08-19T12:09:13;98899.69;;;23.06;76.30
51972;BME280;37991;49.662;10.060;2022-08-19T12:11:39;98895.63;;;23.10;75.45
51972;BME280;37991;49.662;10.060;2022-08-19T12:14:06;98899.97;;;23.18;76.90
51972;BME280;37991;49.662;10.060;2022-08-19T12:16:32;98898.97;;;23.26;76.13
51972;BME280;37991;49.662;10.060;2022-08-19T12:18:58;98903.91;;;23.29;75.71
51972;BME280;37991;49.662;10.060;2022-08-19T12:21:28;98895.56;;;23.52;75.05
51972;BME280;37991;49.662;10.060;2022-08-19T12:23:55;98896.53;;;23.37;70.55
51972;BME280;37991;49.662;10.060;2022-08-19T12:26:22;98892.22;;;23.36;68.81
51972;BME280;37991;49.662;10.060;2022-08-19T12:28:47;98896.13;;;23.34;67.98
51972;BME280;37991;49.662;10.060;2022-08-19T12:31:13;98903.13;;;23.41;67.02
51972;BME280;37991;49.662;10.060;2022-08-19T12:33:41;98899.81;;;23.26;67.40
51972;BME280;37991;49.662;10.060;2022-08-19T12:36:09;98904.13;;;23.27;67.23
51972;BME280;37991;49.662;10.060;2022-08-19T12:38:36;98907.59;;;23.28;66.82
51972;BME280;37991;49.662;10.060;2022-08-19T12:41:03;98916.03;;;23.25;66.89
51972;BME280;37991;49.662;10.060;2022-08-19T12:43:33;98918.03;;;23.16;67.03
51972;BME280;37991;49.662;10.060;2022-08-19T12:46:00;98921.44;;;22.96;67.51
51972;BME280;37991;49.662;10.060;2022-08-19T12:48:25;98919.78;;;22.95;67.32
51972;BME280;37991;49.662;10.060;2022-08-19T12:50:50;98917.75;;;22.97;67.65
51972;BME280;37991;49.662;10.060;2022-08-19T12:53:16;98922.53;;;23.09;66.29
51972;BME280;37991;49.662;10.060;2022-08-19T12:55:42;98919.66;;;23.10;66.36
51972;BME280;37991;49.662;10.060;2022-08-19T12:58:09;98918.06;;;23.23;65.43
51972;BME280;37991;49.662;10.060;2022-08-19T13:00:34;98920.69;;;23.16;65.78
51972;BME280;37991;49.662;10.060;2022-08-19T13:03:00;98916.13;;;23.03;66.45